createdAt,value
2023-03-26T00:02:08.251Z,90.59
2023-03-26T00:04:36.318Z,90.54
2023-03-26T00:07:10.381Z,90.28
2023-03-26T00:09:39.026Z,90.15
2023-03-26T00:12:07.627Z,90.04
2023-03-26T00:14:35.701Z,89.97
2023-03-26T00:17:04.329Z,90.08
2023-03-26T00:19:35.029Z,90.02
2023-03-26T00:22:04.082Z,89.90
2023-03-26T00:24:32.501Z,89.90
2023-03-26T00:27:01.110Z,89.68
2023-03-26T00:29:29.108Z,89.76
2023-03-26T00:31:58.673Z,89.71
2023-03-26T00:34:27.019Z,89.48
2023-03-26T00:37:02.534Z,89.38
2023-03-26T00:39:33.762Z,89.53
2023-03-26T00:42:06.773Z,89.24
2023-03-26T00:44:35.472Z,89.25
2023-03-26T00:47:03.950Z,89.52
2023-03-26T00:49:32.538Z,89.57
2023-03-26T00:52:03.368Z,89.86
2023-03-26T00:54:31.994Z,90.05
2023-03-26T00:57:00.142Z,90.25
2023-03-26T00:59:30.353Z,90.53
2023-03-26T01:02:00.301Z,90.80
2023-03-26T01:04:31.942Z,91.06
2023-03-26T01:07:04.270Z,91.38
2023-03-26T01:09:37.652Z,91.64
2023-03-26T01:12:08.379Z,91.88
2023-03-26T01:14:37.490Z,92.10
2023-03-26T01:17:08.029Z,92.16
2023-03-26T01:19:41.840Z,92.41
2023-03-26T01:22:15.574Z,92.58
2023-03-26T01:24:46.270Z,92.70
2023-03-26T01:27:25.932Z,92.80
2023-03-26T01:29:55.733Z,92.89
2023-03-26T01:32:37.709Z,92.86
2023-03-26T01:35:15.522Z,92.95
2023-03-26T01:37:54.197Z,92.89
2023-03-26T01:40:27.972Z,92.86
2023-03-26T01:43:00.193Z,92.86
2023-03-26T01:45:31.881Z,92.94
2023-03-26T01:48:01.753Z,92.95
2023-03-26T01:50:29.970Z,92.88
2023-03-26T01:52:59.005Z,92.91
2023-03-26T01:55:34.169Z,92.80
2023-03-26T01:58:09.598Z,92.73
2023-03-26T02:00:42.146Z,92.76
2023-03-26T02:03:21.189Z,92.86
2023-03-26T02:05:54.550Z,93.11
2023-03-26T02:08:25.390Z,93.24
2023-03-26T02:10:59.764Z,93.33
2023-03-26T02:13:28.400Z,93.47
2023-03-26T02:15:58.816Z,93.61
2023-03-26T02:18:36.222Z,93.74
2023-03-26T02:21:06.903Z,93.89
2023-03-26T02:23:36.214Z,93.95
2023-03-26T02:26:09.782Z,93.89
2023-03-26T02:28:38.700Z,93.92
2023-03-26T02:31:09.792Z,93.95
2023-03-26T02:33:38.431Z,93.95
2023-03-26T02:36:09.944Z,93.93
2023-03-26T02:38:38.236Z,93.97
2023-03-26T02:41:08.367Z,93.94
2023-03-26T02:43:36.410Z,93.89
2023-03-26T02:46:04.912Z,93.81
2023-03-26T02:48:35.008Z,93.81
2023-03-26T02:51:03.337Z,93.74
2023-03-26T02:53:32.591Z,93.74
2023-03-26T02:56:01.556Z,93.71
2023-03-26T02:58:31.392Z,93.72
2023-03-26T03:00:59.495Z,93.77
2023-03-26T03:03:29.960Z,93.77
2023-03-26T03:05:58.556Z,93.79
2023-03-26T03:08:28.237Z,93.85
2023-03-26T03:10:57.695Z,93.88
2023-03-26T03:13:26.017Z,93.85
2023-03-26T03:15:56.178Z,93.86
2023-03-26T03:18:24.482Z,93.83
2023-03-26T03:20:53.837Z,93.80
2023-03-26T03:23:22.565Z,93.73
2023-03-26T03:25:52.702Z,93.60
2023-03-26T03:28:21.561Z,93.58
2023-03-26T03:30:53.076Z,93.52
2023-03-26T03:33:23.994Z,93.41
2023-03-26T03:35:53.184Z,93.35
2023-03-26T03:38:21.492Z,93.36
2023-03-26T03:40:49.547Z,93.29
2023-03-26T03:43:17.758Z,93.31
2023-03-26T03:45:47.643Z,93.33
2023-03-26T03:48:18.377Z,93.30
2023-03-26T03:50:47.982Z,93.30
2023-03-26T03:53:16.554Z,93.31
2023-03-26T03:55:53.407Z,93.33
2023-03-26T03:58:22.278Z,93.25
2023-03-26T04:00:50.782Z,93.22
2023-03-26T04:03:33.506Z,93.23
2023-03-26T04:06:07.220Z,93.18
2023-03-26T04:08:35.658Z,93.19
2023-03-26T04:11:05.729Z,93.22
2023-03-26T04:13:34.019Z,93.31
2023-03-26T04:16:02.267Z,93.42
2023-03-26T04:18:32.406Z,93.41
2023-03-26T04:21:02.927Z,93.31
2023-03-26T04:23:32.855Z,93.24
2023-03-26T04:26:04.348Z,93.25
2023-03-26T04:28:35.663Z,93.22
2023-03-26T04:31:04.843Z,93.17
2023-03-26T04:33:37.035Z,93.27
2023-03-26T04:36:05.930Z,93.19
2023-03-26T04:38:42.565Z,93.13
2023-03-26T04:41:13.096Z,93.12
2023-03-26T04:43:47.330Z,93.08
2023-03-26T04:46:20.779Z,92.99
2023-03-26T04:48:49.091Z,92.96
2023-03-26T04:51:19.272Z,92.83
2023-03-26T04:53:53.261Z,92.74
2023-03-26T04:56:31.252Z,92.81
2023-03-26T04:59:01.286Z,92.72
2023-03-26T05:01:30.902Z,92.70
2023-03-26T05:03:59.612Z,92.75
2023-03-26T05:06:28.753Z,92.79
2023-03-26T05:08:58.373Z,92.79
2023-03-26T05:11:26.839Z,92.77
2023-03-26T05:13:57.074Z,92.72
2023-03-26T05:16:25.898Z,92.70
2023-03-26T05:18:54.179Z,92.63
2023-03-26T05:21:24.405Z,92.61
2023-03-26T05:23:52.767Z,92.55
2023-03-26T05:26:22.745Z,92.60
2023-03-26T05:28:52.747Z,92.56
2023-03-26T05:31:23.837Z,92.74
2023-03-26T05:33:52.585Z,92.80
2023-03-26T05:36:20.860Z,92.64
2023-03-26T05:38:49.912Z,92.39
2023-03-26T05:41:18.028Z,92.13
2023-03-26T05:43:48.183Z,92.02
2023-03-26T05:46:16.745Z,91.78
2023-03-26T05:48:45.043Z,91.56
2023-03-26T05:51:15.660Z,91.43
2023-03-26T05:53:44.474Z,91.19
2023-03-26T05:56:13.177Z,91.15
2023-03-26T05:58:42.055Z,90.98
2023-03-26T06:01:17.126Z,90.98
2023-03-26T06:03:46.812Z,90.87
2023-03-26T06:06:17.029Z,91.08
2023-03-26T06:08:46.846Z,91.03
2023-03-26T06:11:16.431Z,91.16
2023-03-26T06:13:46.214Z,91.18
2023-03-26T06:16:27.168Z,91.10
2023-03-26T06:18:58.334Z,91.31
2023-03-26T06:21:27.685Z,91.29
2023-03-26T06:23:55.918Z,91.15
2023-03-26T06:26:24.676Z,91.01
2023-03-26T06:28:53.521Z,90.96
2023-03-26T06:31:23.115Z,90.62
2023-03-26T06:33:52.054Z,90.57
2023-03-26T06:36:20.134Z,90.55
2023-03-26T06:38:50.677Z,90.14
2023-03-26T06:41:21.104Z,90.01
2023-03-26T06:43:49.543Z,89.87
2023-03-26T06:46:17.955Z,89.69
2023-03-26T06:48:49.450Z,89.36
2023-03-26T06:51:17.891Z,89.03
2023-03-26T06:53:46.182Z,89.03
2023-03-26T06:56:14.232Z,88.27
2023-03-26T06:58:42.411Z,87.74
2023-03-26T07:01:10.891Z,87.56
2023-03-26T07:03:39.119Z,87.29
2023-03-26T07:06:11.128Z,86.93
2023-03-26T07:08:39.109Z,86.18
2023-03-26T07:11:07.733Z,85.74
2023-03-26T07:13:36.965Z,85.55
2023-03-26T07:16:06.067Z,85.52
2023-03-26T07:18:34.087Z,84.63
2023-03-26T07:21:02.698Z,84.31
2023-03-26T07:23:32.648Z,83.77
2023-03-26T07:26:01.995Z,83.85
2023-03-26T07:28:36.792Z,84.32
2023-03-26T07:31:15.609Z,83.97
2023-03-26T07:33:47.844Z,83.69
2023-03-26T07:36:22.371Z,84.06
2023-03-26T07:39:06.374Z,83.61
2023-03-26T07:41:42.141Z,83.59
2023-03-26T07:44:24.835Z,84.33
2023-03-26T07:46:54.725Z,85.46
2023-03-26T07:49:23.489Z,85.98
2023-03-26T07:51:52.635Z,86.51
2023-03-26T07:54:22.781Z,86.52
2023-03-26T07:56:57.956Z,85.88
2023-03-26T07:59:31.323Z,86.12
2023-03-26T08:02:19.672Z,86.06
2023-03-26T08:05:00.329Z,85.82
2023-03-26T08:07:36.409Z,85.62
2023-03-26T08:10:11.557Z,85.51
2023-03-26T08:12:45.408Z,85.11
2023-03-26T08:15:17.198Z,84.34
2023-03-26T08:17:50.281Z,83.74
2023-03-26T08:20:31.030Z,82.59
2023-03-26T08:23:05.899Z,82.04
2023-03-26T08:25:38.076Z,82.46
2023-03-26T08:28:10.688Z,82.07
2023-03-26T08:30:39.280Z,80.61
2023-03-26T08:33:14.500Z,80.23
2023-03-26T08:35:43.144Z,79.89
2023-03-26T08:38:11.712Z,80.47
2023-03-26T08:44:03.070Z,78.63
2023-03-26T08:46:47.244Z,77.91
2023-03-26T08:49:46.254Z,79.23
2023-03-26T08:52:38.642Z,77.52
2023-03-26T08:55:31.408Z,77.73
2023-03-26T08:58:05.499Z,78.10
2023-03-26T09:00:53.203Z,77.29
2023-03-26T09:03:41.388Z,77.94
2023-03-26T09:06:42.923Z,76.85
2023-03-26T09:09:37.345Z,75.81
2023-03-26T09:12:21.941Z,74.74
2023-03-26T09:15:18.602Z,74.52
2023-03-26T09:18:24.368Z,74.60
2023-03-26T09:21:28.167Z,74.45
2023-03-26T09:24:27.815Z,74.52
2023-03-26T09:27:01.968Z,74.39
2023-03-26T09:29:47.273Z,73.51
2023-03-26T09:32:31.237Z,75.62
2023-03-26T09:35:13.234Z,73.71
2023-03-26T09:37:56.805Z,71.65
2023-03-26T09:40:33.262Z,71.74
2023-03-26T09:43:17.906Z,71.97
2023-03-26T09:45:53.730Z,70.44
2023-03-26T09:48:30.809Z,70.54
2023-03-26T09:51:11.106Z,72.40
2023-03-26T09:53:53.716Z,72.96
2023-03-26T09:56:37.845Z,73.03
2023-03-26T09:59:21.056Z,72.38
2023-03-26T10:01:56.273Z,72.22
2023-03-26T10:04:40.785Z,72.00
2023-03-26T10:07:25.833Z,70.21
2023-03-26T10:09:58.687Z,70.27
2023-03-26T10:12:33.518Z,70.36
2023-03-26T10:15:19.353Z,68.90
2023-03-26T10:17:57.866Z,68.90
2023-03-26T10:20:46.359Z,70.07
2023-03-26T10:23:33.385Z,68.94
2023-03-26T10:26:09.784Z,68.91
2023-03-26T10:28:49.641Z,70.35
2023-03-26T10:31:44.834Z,68.15
2023-03-26T10:34:29.012Z,69.21
2023-03-26T10:37:05.358Z,69.04
2023-03-26T10:39:45.453Z,68.46
2023-03-26T10:42:29.226Z,68.34
2023-03-26T10:45:12.208Z,68.99
2023-03-26T10:47:56.058Z,70.32
2023-03-26T10:50:37.042Z,69.12
2023-03-26T10:53:15.167Z,68.58
2023-03-26T10:55:46.903Z,67.68
2023-03-26T10:58:19.982Z,68.96
2023-03-26T11:00:52.130Z,70.53
2023-03-26T11:03:36.326Z,69.26
2023-03-26T11:06:12.087Z,68.79
2023-03-26T11:08:44.352Z,69.57
2023-03-26T11:11:20.125Z,69.37
2023-03-26T11:13:57.051Z,68.42
2023-03-26T11:16:32.737Z,68.38
2023-03-26T11:19:05.111Z,68.43
2023-03-26T11:21:35.849Z,67.90
2023-03-26T11:24:13.730Z,68.51
2023-03-26T11:26:49.092Z,66.81
2023-03-26T11:29:32.767Z,68.77
2023-03-26T11:32:05.701Z,68.75
2023-03-26T11:34:37.069Z,68.30
2023-03-26T11:37:08.005Z,67.61
2023-03-26T11:39:42.922Z,66.76
2023-03-26T11:42:14.289Z,68.66
2023-03-26T11:44:45.557Z,67.73
2023-03-26T11:47:16.902Z,67.40
2023-03-26T11:49:45.895Z,66.83
2023-03-26T11:52:15.765Z,66.96
2023-03-26T11:54:50.645Z,65.95
2023-03-26T11:57:22.296Z,66.50
2023-03-26T11:59:58.110Z,66.09
2023-03-26T12:02:32.661Z,66.19
2023-03-26T12:05:18.876Z,65.31
2023-03-26T12:07:52.614Z,67.37
2023-03-26T12:10:31.365Z,64.10
2023-03-26T12:13:01.205Z,63.85
2023-03-26T12:15:32.093Z,62.15
2023-03-26T12:18:01.638Z,60.11
2023-03-26T12:20:38.949Z,59.52
2023-03-26T12:23:09.486Z,59.19
2023-03-26T12:25:44.064Z,59.11
2023-03-26T12:28:19.175Z,57.20
2023-03-26T12:31:00.890Z,57.60
2023-03-26T12:33:34.426Z,57.30
2023-03-26T12:36:20.530Z,59.13
2023-03-26T12:39:16.176Z,59.73
2023-03-26T12:44:42.570Z,59.71
2023-03-26T12:44:55.726Z,59.46
2023-03-26T12:47:56.642Z,59.92
2023-03-26T12:50:14.926Z,61.24
2023-03-26T12:52:46.808Z,61.48
2023-03-26T12:55:24.745Z,62.01
2023-03-26T12:57:57.893Z,62.93
2023-03-26T13:00:38.031Z,62.70
2023-03-26T13:03:29.484Z,62.90
2023-03-26T13:06:23.999Z,61.02
2023-03-26T13:09:12.172Z,62.83
2023-03-26T13:11:47.745Z,61.00
2023-03-26T13:14:44.857Z,63.04
2023-03-26T13:17:22.733Z,61.66
2023-03-26T13:19:58.124Z,63.12
2023-03-26T13:22:32.361Z,62.97
2023-03-26T13:25:06.841Z,62.17
2023-03-26T13:27:41.881Z,63.41
2023-03-26T13:30:19.955Z,64.49
2023-03-26T13:32:58.696Z,63.12
2023-03-26T13:35:34.290Z,65.56
2023-03-26T13:38:10.525Z,64.56
2023-03-26T13:40:46.802Z,64.82
2023-03-26T13:43:30.974Z,65.90
2023-03-26T13:46:03.894Z,65.01
2023-03-26T13:48:34.672Z,65.27
2023-03-26T13:51:10.624Z,65.83
2023-03-26T13:53:43.257Z,66.53
2023-03-26T13:56:15.467Z,67.66
2023-03-26T13:58:46.198Z,65.89
2023-03-26T14:01:17.841Z,66.09
2023-03-26T14:03:53.307Z,66.57
2023-03-26T14:06:46.840Z,64.40
2023-03-26T14:09:19.204Z,65.50
2023-03-26T14:11:50.528Z,66.49
2023-03-26T14:14:20.900Z,65.44
2023-03-26T14:16:52.759Z,64.79
2023-03-26T14:20:01.353Z,65.17
2023-03-26T14:22:40.567Z,65.77
2023-03-26T14:25:18.761Z,64.75
2023-03-26T14:27:57.263Z,67.52
2023-03-26T14:30:57.610Z,67.77
2023-03-26T14:33:48.520Z,67.57
2023-03-26T14:36:23.806Z,67.10
2023-03-26T14:39:15.801Z,66.97
2023-03-26T14:41:48.707Z,66.80
2023-03-26T14:44:48.543Z,68.77
2023-03-26T14:47:19.413Z,68.40
2023-03-26T14:50:04.161Z,67.40
2023-03-26T14:52:41.775Z,69.21
2023-03-26T14:55:23.242Z,67.86
2023-03-26T14:58:07.571Z,66.91
2023-03-26T15:01:03.976Z,66.81
2023-03-26T15:04:04.844Z,66.71
2023-03-26T15:07:01.735Z,68.12
2023-03-26T15:10:06.017Z,69.38
2023-03-26T15:12:45.786Z,69.39
2023-03-26T15:15:35.439Z,69.78
2023-03-26T15:18:33.815Z,69.27
2023-03-26T15:21:31.713Z,70.96
2023-03-26T15:24:24.919Z,72.02
2023-03-26T15:27:24.618Z,71.49
2023-03-26T15:30:27.914Z,70.90
2023-03-26T15:33:22.700Z,70.34
2023-03-26T15:36:13.941Z,71.24
2023-03-26T15:38:55.644Z,70.18
2023-03-26T15:41:27.871Z,71.95
2023-03-26T15:44:24.082Z,71.00
2023-03-26T15:46:58.490Z,70.41
2023-03-26T15:49:34.705Z,71.06
2023-03-26T15:52:09.557Z,71.15
2023-03-26T15:54:41.014Z,71.54
2023-03-26T15:57:18.624Z,71.25
2023-03-26T16:00:00.628Z,70.75
2023-03-26T16:02:37.360Z,70.48
2023-03-26T16:05:26.494Z,70.43
2023-03-26T16:08:04.457Z,70.63
2023-03-26T16:10:41.086Z,71.49
2023-03-26T16:13:38.611Z,71.93
2023-03-26T16:16:23.820Z,72.03
2023-03-26T16:18:58.374Z,71.95
2023-03-26T16:21:38.275Z,71.35
2023-03-26T16:24:21.220Z,71.43
2023-03-26T16:27:01.339Z,71.74
2023-03-26T16:29:34.313Z,72.63
2023-03-26T16:32:18.476Z,72.36
2023-03-26T16:34:52.903Z,73.03
2023-03-26T16:37:43.410Z,72.78
2023-03-26T16:40:35.347Z,73.17
2023-03-26T16:43:11.835Z,73.90
2023-03-26T16:45:45.331Z,73.18
2023-03-26T16:48:24.146Z,72.87
2023-03-26T16:50:57.942Z,73.37
2023-03-26T16:53:38.589Z,73.91
2023-03-26T16:56:14.682Z,74.54
2023-03-26T16:58:53.698Z,74.69
2023-03-26T17:01:28.718Z,74.87
2023-03-26T17:03:59.990Z,74.55
2023-03-26T17:07:14.091Z,75.17
2023-03-26T17:09:54.471Z,75.48
2023-03-26T17:12:32.139Z,75.53
2023-03-26T17:15:08.341Z,75.69
2023-03-26T17:17:45.862Z,75.67
2023-03-26T17:20:22.848Z,76.02
2023-03-26T17:22:54.258Z,76.43
2023-03-26T17:25:28.747Z,76.51
2023-03-26T17:28:08.684Z,76.66
2023-03-26T17:30:51.041Z,76.86
2023-03-26T17:33:24.206Z,77.19
2023-03-26T17:35:54.206Z,77.36
2023-03-26T17:38:55.339Z,77.82
2023-03-26T17:41:57.121Z,77.96
2023-03-26T17:44:44.825Z,78.31
2023-03-26T17:47:25.154Z,78.52
2023-03-26T17:49:59.100Z,78.69
2023-03-26T17:52:34.955Z,78.76
2023-03-26T17:55:06.057Z,78.97
2023-03-26T17:57:42.014Z,79.08
2023-03-26T18:00:19.484Z,79.20
2023-03-26T18:02:54.043Z,79.33
2023-03-26T18:05:23.379Z,79.49
2023-03-26T18:08:13.491Z,79.66
2023-03-26T18:11:00.514Z,79.78
2023-03-26T18:13:51.971Z,79.95
2023-03-26T18:16:25.770Z,80.15
2023-03-26T18:18:57.107Z,80.17
2023-03-26T18:21:33.465Z,80.37
2023-03-26T18:24:05.036Z,80.53
2023-03-26T18:26:35.945Z,80.68
2023-03-26T18:29:16.681Z,80.82
2023-03-26T18:31:48.431Z,81.04
2023-03-26T18:34:20.293Z,81.24
2023-03-26T18:37:00.961Z,81.51
2023-03-26T18:39:29.053Z,81.50
2023-03-26T18:41:59.623Z,81.52
2023-03-26T18:44:28.552Z,81.23
2023-03-26T18:47:00.126Z,80.14
2023-03-26T18:49:30.008Z,79.14
2023-03-26T18:51:58.115Z,78.74
2023-03-26T18:54:30.430Z,76.63
2023-03-26T18:57:00.484Z,76.34
2023-03-26T18:59:32.178Z,75.41
2023-03-26T19:02:05.961Z,74.85
2023-03-26T19:04:39.502Z,74.20
2023-03-26T19:07:10.799Z,73.95
2023-03-26T19:09:40.248Z,73.69
2023-03-26T19:12:16.624Z,73.32
2023-03-26T19:14:58.699Z,72.57
2023-03-26T19:17:31.681Z,71.99
2023-03-26T19:19:59.859Z,71.71
2023-03-26T19:22:30.046Z,71.15
2023-03-26T19:25:00.635Z,70.67
2023-03-26T19:27:29.047Z,70.40
2023-03-26T19:29:59.458Z,70.12
2023-03-26T19:32:34.780Z,70.17
2023-03-26T19:35:04.442Z,69.86
2023-03-26T19:37:33.409Z,70.29
2023-03-26T19:40:07.090Z,70.29
2023-03-26T19:42:43.131Z,70.43
2023-03-26T19:45:18.224Z,70.37
2023-03-26T19:48:00.170Z,69.79
2023-03-26T19:50:39.334Z,68.94
2023-03-26T19:53:17.940Z,68.97
2023-03-26T19:55:59.677Z,68.88
2023-03-26T19:58:28.402Z,68.84
2023-03-26T20:00:56.978Z,68.48
2023-03-26T20:03:29.798Z,67.83
2023-03-26T20:05:58.758Z,68.23
2023-03-26T20:08:28.084Z,68.45
2023-03-26T20:11:00.016Z,68.65
2023-03-26T20:13:31.378Z,68.01
2023-03-26T20:16:05.737Z,68.49
2023-03-26T20:18:40.288Z,68.24
2023-03-26T20:21:14.585Z,68.30
2023-03-26T20:23:43.229Z,68.44
2023-03-26T20:26:13.500Z,68.68
2023-03-26T20:28:48.178Z,69.49
2023-03-26T20:31:19.803Z,69.51
2023-03-26T20:33:51.885Z,69.43
2023-03-26T20:36:33.345Z,69.56
2023-03-26T20:39:06.203Z,70.29
2023-03-26T20:41:35.922Z,70.07
2023-03-26T20:44:05.811Z,70.58
2023-03-26T20:46:34.234Z,70.77
2023-03-26T20:49:07.879Z,70.69
2023-03-26T20:51:38.142Z,70.84
2023-03-26T20:54:07.822Z,70.86
2023-03-26T20:56:38.069Z,70.93
2023-03-26T20:59:11.355Z,71.32
2023-03-26T21:01:41.508Z,71.05
2023-03-26T21:04:19.219Z,71.19
2023-03-26T21:06:50.802Z,71.74
2023-03-26T21:09:24.175Z,71.69
2023-03-26T21:12:03.386Z,71.35
2023-03-26T21:14:39.062Z,71.80
2023-03-26T21:17:10.127Z,71.76
2023-03-26T21:19:40.410Z,71.70
2023-03-26T21:22:17.056Z,71.82
2023-03-26T21:24:51.129Z,72.04
2023-03-26T21:27:26.037Z,71.87
2023-03-26T21:29:55.145Z,72.03
2023-03-26T21:32:24.242Z,71.92
2023-03-26T21:34:59.133Z,71.97
2023-03-26T21:37:29.571Z,72.31
2023-03-26T21:39:59.802Z,71.82
2023-03-26T21:42:30.250Z,71.73
2023-03-26T21:44:59.726Z,71.79
2023-03-26T21:47:29.140Z,71.83
2023-03-26T21:50:00.205Z,71.62
2023-03-26T21:52:30.727Z,71.66
2023-03-26T21:55:01.402Z,71.87
2023-03-26T21:57:47.738Z,72.03
2023-03-26T22:00:30.616Z,72.32
2023-03-26T22:03:12.504Z,72.62
2023-03-26T22:05:45.609Z,72.87
2023-03-26T22:08:28.864Z,73.12
2023-03-26T22:10:57.225Z,73.12
2023-03-26T22:13:28.283Z,73.28
2023-03-26T22:15:56.852Z,73.41
2023-03-26T22:18:26.053Z,73.61
2023-03-26T22:20:55.984Z,73.81
2023-03-26T22:23:24.820Z,73.87
2023-03-26T22:25:57.390Z,74.08
2023-03-26T22:28:25.437Z,74.55
2023-03-26T22:30:53.891Z,74.43
2023-03-26T22:33:22.474Z,75.06
2023-03-26T22:35:50.687Z,75.27
2023-03-26T22:38:21.444Z,75.02
2023-03-26T22:40:55.876Z,75.24
2023-03-26T22:43:24.930Z,75.27
2023-03-26T22:45:55.024Z,75.01
2023-03-26T22:48:24.354Z,75.24
2023-03-26T22:51:00.327Z,75.32
2023-03-26T22:53:31.352Z,75.40
2023-03-26T22:55:59.773Z,75.67
2023-03-26T22:58:30.823Z,75.99
2023-03-26T23:01:03.416Z,76.08
2023-03-26T23:03:35.287Z,76.01
2023-03-26T23:06:04.941Z,76.03
2023-03-26T23:08:35.388Z,76.12
2023-03-26T23:11:03.960Z,76.51
2023-03-26T23:13:32.038Z,76.33
2023-03-26T23:16:03.471Z,76.53
2023-03-26T23:18:31.595Z,76.68
2023-03-26T23:21:00.549Z,76.34
2023-03-26T23:23:30.971Z,76.71
2023-03-26T23:26:01.901Z,76.44
2023-03-26T23:28:32.141Z,76.67
2023-03-26T23:31:05.136Z,76.75
2023-03-26T23:33:35.582Z,77.23
2023-03-26T23:36:08.774Z,77.09
2023-03-26T23:38:44.005Z,77.35
2023-03-26T23:41:15.280Z,77.85
2023-03-26T23:43:53.737Z,78.17
2023-03-26T23:46:23.499Z,78.39
2023-03-26T23:48:52.358Z,78.74
2023-03-26T23:51:24.149Z,79.02
2023-03-26T23:53:54.498Z,79.26
2023-03-26T23:56:24.001Z,79.32
2023-03-26T23:58:54.029Z,79.30
